sensor_id;sensor_type;location;lat;lon;timestamp;pressure;altitude;pressure_sealevel;temperature;humidity
13241;BME280;6687;47.790;7.322;2022-08-19T06:13:33;98743.22;;;20.56;97.89
13241;BME280;6687;47.790;7.322;2022-08-19T06:16:00;98738.94;;;20.54;99.09
13241;BME280;6687;47.790;7.322;2022-08-19T06:18:26;98747.25;;;20.65;97.61
13241;BME280;6687;47.790;7.322;2022-08-19T06:20:53;98746.63;;;20.60;97.79
13241;BME280;6687;47.790;7.322;2022-08-19T06:23:20;98752.28;;;20.71;95.07
13241;BME280;6687;47.790;7.322;2022-08-19T06:25:47;98756.56;;;20.74;94.38
13241;BME280;6687;47.790;7.322;2022-08-19T06:28:13;98759.25;;;20.72;92.37
13241;BME280;6687;47.790;7.322;2022-08-19T06:30:41;98757.41;;;20.74;92.87
13241;BME280;6687;47.790;7.322;2022-08-19T06:33:08;98759.13;;;20.75;91.46
13241;BME280;6687;47.790;7.322;2022-08-19T06:35:38;98760.97;;;20.73;91.84
13241;BME280;6687;47.790;7.322;2022-08-19T06:38:05;98754.72;;;20.76;93.46
13241;BME280;6687;47.790;7.322;2022-08-19T06:40:32;98761.63;;;20.78;95.72
13241;BME280;6687;47.790;7.322;2022-08-19T06:42:58;98757.81;;;20.85;96.34
13241;BME280;6687;47.790;7.322;2022-08-19T06:45:27;98761.34;;;20.84;96.48
13241;BME280;6687;47.790;7.322;2022-08-19T06:47:55;98770.84;;;20.89;94.34
13241;BME280;6687;47.790;7.322;2022-08-19T06:50:22;98770.53;;;20.76;98.91
13241;BME280;6687;47.790;7.322;2022-08-19T06:52:49;98765.56;;;20.89;97.04
13241;BME280;6687;47.790;7.322;2022-08-19T06:55:16;98774.06;;;20.95;97.91
13241;BME280;6687;47.790;7.322;2022-08-19T06:57:43;98774.88;;;20.97;97.57
13241;BME280;6687;47.790;7.322;2022-08-19T07:00:11;98782.75;;;20.77;100.00
13241;BME280;6687;47.790;7.322;2022-08-19T07:02:40;98783.09;;;20.90;100.00
13241;BME280;6687;47.790;7.322;2022-08-19T07:05:08;98775.03;;;20.93;100.00
13241;BME280;6687;47.790;7.322;2022-08-19T07:07:35;98773.69;;;20.84;100.00
13241;BME280;6687;47.790;7.322;2022-08-19T07:10:03;98784.78;;;20.91;100.00
13241;BME280;6687;47.790;7.322;2022-08-19T07:12:31;98781.66;;;21.03;100.00
13241;BME280;6687;47.790;7.322;2022-08-19T07:14:59;98785.72;;;21.10;100.00
13241;BME280;6687;47.790;7.322;2022-08-19T07:17:26;98784.53;;;21.17;100.00
13241;BME280;6687;47.790;7.322;2022-08-19T07:19:53;98787.81;;;21.43;100.00
13241;BME280;6687;47.790;7.322;2022-08-19T07:22:22;98788.94;;;21.56;99.87
13241;BME280;6687;47.790;7.322;2022-08-19T07:24:48;98778.38;;;21.56;99.79
13241;BME280;6687;47.790;7.322;2022-08-19T07:27:15;98781.84;;;21.38;99.85
13241;BME280;6687;47.790;7.322;2022-08-19T07:29:42;98791.03;;;21.69;98.90
13241;BME280;6687;47.790;7.322;2022-08-19T07:32:09;98786.38;;;21.74;98.43
13241;BME280;6687;47.790;7.322;2022-08-19T07:34:36;98786.38;;;21.93;97.20
13241;BME280;6687;47.790;7.322;2022-08-19T07:37:04;98783.22;;;22.03;94.67
13241;BME280;6687;47.790;7.322;2022-08-19T07:39:34;98785.50;;;21.92;95.16
13241;BME280;6687;47.790;7.322;2022-08-19T07:42:07;98791.31;;;22.18;89.57
13241;BME280;6687;47.790;7.322;2022-08-19T07:44:34;98787.06;;;22.34;88.99
13241;BME280;6687;47.790;7.322;2022-08-19T07:47:02;98791.88;;;22.43;91.17
13241;BME280;6687;47.790;7.322;2022-08-19T07:49:29;98793.59;;;22.44;86.37
13241;BME280;6687;47.790;7.322;2022-08-19T07:51:58;98793.28;;;22.51;90.35
13241;BME280;6687;47.790;7.322;2022-08-19T07:54:28;98799.50;;;22.67;90.92
13241;BME280;6687;47.790;7.322;2022-08-19T07:56:57;98791.91;;;22.78;87.53
13241;BME280;6687;47.790;7.322;2022-08-19T07:59:24;98797.72;;;22.85;85.31
13241;BME280;6687;47.790;7.322;2022-08-19T08:01:51;98794.06;;;23.05;89.02
13241;BME280;6687;47.790;7.322;2022-08-19T08:04:18;98790.81;;;23.00;87.64
13241;BME280;6687;47.790;7.322;2022-08-19T08:07:02;98793.44;;;23.17;85.22
13241;BME280;6687;47.790;7.322;2022-08-19T08:09:47;98797.34;;;23.10;74.40
13241;BME280;6687;47.790;7.322;2022-08-19T08:12:17;98800.19;;;23.23;75.98
13241;BME280;6687;47.790;7.322;2022-08-19T08:14:47;98797.06;;;23.32;72.78
13241;BME280;6687;47.790;7.322;2022-08-19T08:17:16;98807.66;;;23.32;70.48
13241;BME280;6687;47.790;7.322;2022-08-19T08:19:44;98805.59;;;23.37;72.75
13241;BME280;6687;47.790;7.322;2022-08-19T08:22:14;98810.06;;;23.53;73.52
13241;BME280;6687;47.790;7.322;2022-08-19T08:25:05;98809.75;;;23.59;73.28
13241;BME280;6687;47.790;7.322;2022-08-19T08:27:37;98814.00;;;23.61;68.30
13241;BME280;6687;47.790;7.322;2022-08-19T08:30:05;98819.50;;;23.74;73.66
13241;BME280;6687;47.790;7.322;2022-08-19T08:32:34;98820.34;;;23.75;74.64
13241;BME280;6687;47.790;7.322;2022-08-19T08:35:01;98814.06;;;23.93;72.99
13241;BME280;6687;47.790;7.322;2022-08-19T08:37:28;98820.94;;;23.97;69.18
13241;BME280;6687;47.790;7.322;2022-08-19T08:39:55;98822.34;;;24.03;68.20
13241;BME280;6687;47.790;7.322;2022-08-19T08:42:27;98828.75;;;24.15;66.83
13241;BME280;6687;47.790;7.322;2022-08-19T08:44:59;98833.03;;;24.33;69.72
13241;BME280;6687;47.790;7.322;2022-08-19T08:47:31;98840.88;;;24.35;66.58
13241;BME280;6687;47.790;7.322;2022-08-19T08:50:04;98843.78;;;24.46;67.83
13241;BME280;6687;47.790;7.322;2022-08-19T08:52:34;98842.41;;;24.55;66.06
13241;BME280;6687;47.790;7.322;2022-08-19T08:55:07;98839.75;;;24.55;65.62
13241;BME280;6687;47.790;7.322;2022-08-19T08:57:36;98846.84;;;24.70;66.21
13241;BME280;6687;47.790;7.322;2022-08-19T09:00:10;98848.69;;;24.84;66.80
13241;BME280;6687;47.790;7.322;2022-08-19T09:02:38;98842.91;;;24.77;64.47
13241;BME280;6687;47.790;7.322;2022-08-19T09:05:05;98843.22;;;24.87;66.29
13241;BME280;6687;47.790;7.322;2022-08-19T09:07:46;98845.75;;;24.89;66.63
13241;BME280;6687;47.790;7.322;2022-08-19T09:10:21;98860.75;;;25.04;67.11
13241;BME280;6687;47.790;7.322;2022-08-19T09:12:54;98863.13;;;25.09;66.54
13241;BME280;6687;47.790;7.322;2022-08-19T09:15:31;98868.91;;;25.01;66.43
13241;BME280;6687;47.790;7.322;2022-08-19T09:18:00;98866.44;;;24.98;67.04
13241;BME280;6687;47.790;7.322;2022-08-19T09:20:29;98870.63;;;25.16;65.71
13241;BME280;6687;47.790;7.322;2022-08-19T09:22:57;98866.66;;;25.09;66.02
13241;BME280;6687;47.790;7.322;2022-08-19T09:25:25;98867.13;;;25.01;66.04
13241;BME280;6687;47.790;7.322;2022-08-19T09:27:52;98875.09;;;25.16;66.10
13241;BME280;6687;47.790;7.322;2022-08-19T09:30:25;98870.06;;;25.11;65.14
13241;BME280;6687;47.790;7.322;2022-08-19T09:32:54;98868.34;;;25.10;65.41
13241;BME280;6687;47.790;7.322;2022-08-19T09:35:23;98869.31;;;25.09;65.53
13241;BME280;6687;47.790;7.322;2022-08-19T09:37:50;98880.22;;;25.19;64.90
13241;BME280;6687;47.790;7.322;2022-08-19T09:40:18;98874.25;;;25.15;65.11
13241;BME280;6687;47.790;7.322;2022-08-19T09:42:45;98877.66;;;25.17;65.32
13241;BME280;6687;47.790;7.322;2022-08-19T09:45:13;98880.84;;;25.08;65.42
13241;BME280;6687;47.790;7.322;2022-08-19T09:47:40;98886.50;;;25.02;66.09
13241;BME280;6687;47.790;7.322;2022-08-19T09:50:10;98886.97;;;24.94;66.66
13241;BME280;6687;47.790;7.322;2022-08-19T09:52:38;98890.22;;;24.99;65.80
13241;BME280;6687;47.790;7.322;2022-08-19T09:55:09;98889.47;;;24.81;66.78
13241;BME280;6687;47.790;7.322;2022-08-19T09:57:36;98891.09;;;24.84;66.50
13241;BME280;6687;47.790;7.322;2022-08-19T10:00:03;98897.44;;;24.81;68.91
13241;BME280;6687;47.790;7.322;2022-08-19T10:02:30;98893.69;;;24.70;67.33
13241;BME280;6687;47.790;7.322;2022-08-19T10:04:57;98883.78;;;24.73;67.17
13241;BME280;6687;47.790;7.322;2022-08-19T10:07:43;98883.59;;;24.76;67.61
13241;BME280;6687;47.790;7.322;2022-08-19T10:10:10;98887.97;;;24.77;67.01
13241;BME280;6687;47.790;7.322;2022-08-19T10:12:37;98884.00;;;24.85;68.73
13241;BME280;6687;47.790;7.322;2022-08-19T10:15:05;98880.00;;;24.77;66.73
13241;BME280;6687;47.790;7.322;2022-08-19T10:17:33;98886.28;;;24.91;66.21
13241;BME280;6687;47.790;7.322;2022-08-19T10:20:00;98885.94;;;24.97;69.44
13241;BME280;6687;47.790;7.322;2022-08-19T10:22:29;98876.66;;;25.04;67.00
13241;BME280;6687;47.790;7.322;2022-08-19T10:24:57;98884.91;;;24.99;66.58
13241;BME280;6687;47.790;7.322;2022-08-19T10:27:23;98884.78;;;25.17;66.29
13241;BME280;6687;47.790;7.322;2022-08-19T10:29:50;98888.47;;;24.98;67.78
13241;BME280;6687;47.790;7.322;2022-08-19T10:32:17;98883.50;;;25.08;66.20
13241;BME280;6687;47.790;7.322;2022-08-19T10:34:44;98873.25;;;25.02;67.05
13241;BME280;6687;47.790;7.322;2022-08-19T10:37:12;98874.25;;;25.15;65.94
13241;BME280;6687;47.790;7.322;2022-08-19T10:39:38;98885.41;;;25.20;65.47
13241;BME280;6687;47.790;7.322;2022-08-19T10:42:07;98881.06;;;25.19;65.51
13241;BME280;6687;47.790;7.322;2022-08-19T10:44:36;98880.84;;;25.08;66.84
13241;BME280;6687;47.790;7.322;2022-08-19T10:47:03;98878.97;;;25.10;65.73
13241;BME280;6687;47.790;7.322;2022-08-19T10:49:30;98884.84;;;25.15;65.96
13241;BME280;6687;47.790;7.322;2022-08-19T10:52:17;98879.34;;;25.18;65.47
13241;BME280;6687;47.790;7.322;2022-08-19T10:54:59;98882.75;;;25.20;64.99
13241;BME280;6687;47.790;7.322;2022-08-19T10:57:53;98872.50;;;25.30;64.54
13241;BME280;6687;47.790;7.322;2022-08-19T11:00:20;98873.75;;;25.39;64.87
13241;BME280;6687;47.790;7.322;2022-08-19T11:02:46;98870.81;;;25.44;65.15
13241;BME280;6687;47.790;7.322;2022-08-19T11:05:13;98870.66;;;25.61;63.84
13241;BME280;6687;47.790;7.322;2022-08-19T11:07:40;98858.22;;;25.76;64.42
13241;BME280;6687;47.790;7.322;2022-08-19T11:10:09;98865.03;;;25.80;62.18
13241;BME280;6687;47.790;7.322;2022-08-19T11:12:36;98862.75;;;25.88;62.50
13241;BME280;6687;47.790;7.322;2022-08-19T11:15:08;98863.91;;;26.13;62.80
13241;BME280;6687;47.790;7.322;2022-08-19T11:17:36;98865.22;;;26.06;61.62
13241;BME280;6687;47.790;7.322;2022-08-19T11:20:06;98855.59;;;26.32;61.82
13241;BME280;6687;47.790;7.322;2022-08-19T11:22:34;98853.63;;;26.63;62.58
13241;BME280;6687;47.790;7.322;2022-08-19T11:25:00;98856.41;;;26.47;60.88
13241;BME280;6687;47.790;7.322;2022-08-19T11:27:27;98857.22;;;26.62;60.71
13241;BME280;6687;47.790;7.322;2022-08-19T11:29:54;98856.78;;;26.82;61.18
13241;BME280;6687;47.790;7.322;2022-08-19T11:32:22;98861.69;;;27.01;60.84
13241;BME280;6687;47.790;7.322;2022-08-19T11:34:49;98852.03;;;27.00;60.30
13241;BME280;6687;47.790;7.322;2022-08-19T11:37:16;98853.94;;;27.11;59.99
13241;BME280;6687;47.790;7.322;2022-08-19T11:39:43;98854.00;;;27.36;59.05
13241;BME280;6687;47.790;7.322;2022-08-19T11:42:09;98856.88;;;27.33;58.09
13241;BME280;6687;47.790;7.322;2022-08-19T11:44:54;98851.13;;;27.27;59.05
13241;BME280;6687;47.790;7.322;2022-08-19T11:47:22;98853.19;;;27.22;58.76
13241;BME280;6687;47.790;7.322;2022-08-19T11:49:49;98853.03;;;27.25;59.63
13241;BME280;6687;47.790;7.322;2022-08-19T11:52:16;98851.88;;;27.29;59.19
13241;BME280;6687;47.790;7.322;2022-08-19T11:54:43;98858.66;;;27.20;59.65
13241;BME280;6687;47.790;7.322;2022-08-19T11:57:09;98849.16;;;27.03;58.91
13241;BME280;6687;47.790;7.322;2022-08-19T11:59:36;98855.44;;;27.02;59.73
13241;BME280;6687;47.790;7.322;2022-08-19T12:02:03;98855.22;;;27.05;59.43
13241;BME280;6687;47.790;7.322;2022-08-19T12:04:31;98853.19;;;26.96;59.54
13241;BME280;6687;47.790;7.322;2022-08-19T12:06:58;98854.69;;;27.00;59.39
13241;BME280;6687;47.790;7.322;2022-08-19T12:09:25;98859.03;;;27.01;58.91
13241;BME280;6687;47.790;7.322;2022-08-19T12:11:53;98851.72;;;27.05;59.21
13241;BME280;6687;47.790;7.322;2022-08-19T12:14:20;98864.91;;;27.06;59.56
13241;BME280;6687;47.790;7.322;2022-08-19T12:16:48;98863.31;;;27.16;59.65
13241;BME280;6687;47.790;7.322;2022-08-19T12:19:16;98857.41;;;27.26;58.53
13241;BME280;6687;47.790;7.322;2022-08-19T12:21:44;98860.41;;;27.34;59.12
13241;BME280;6687;47.790;7.322;2022-08-19T12:24:11;98855.09;;;27.34;57.52
13241;BME280;6687;47.790;7.322;2022-08-19T12:26:39;98851.44;;;27.35;57.84
13241;BME280;6687;47.790;7.322;2022-08-19T12:29:07;98854.41;;;27.43;57.98
13241;BME280;6687;47.790;7.322;2022-08-19T12:31:35;98844.44;;;27.34;57.36
13241;BME280;6687;47.790;7.322;2022-08-19T12:34:02;98854.41;;;27.43;57.42
13241;BME280;6687;47.790;7.322;2022-08-19T12:36:30;98864.44;;;27.52;57.33
13241;BME280;6687;47.790;7.322;2022-08-19T12:38:59;98858.88;;;27.55;57.10
13241;BME280;6687;47.790;7.322;2022-08-19T12:41:26;98852.72;;;27.68;57.41
13241;BME280;6687;47.790;7.322;2022-08-19T12:43:53;98846.13;;;27.61;56.94
13241;BME280;6687;47.790;7.322;2022-08-19T12:46:20;98845.47;;;27.57;56.93
13241;BME280;6687;47.790;7.322;2022-08-19T12:48:47;98851.75;;;27.69;56.69
13241;BME280;6687;47.790;7.322;2022-08-19T12:51:15;98849.94;;;27.82;56.30
13241;BME280;6687;47.790;7.322;2022-08-19T12:53:43;98840.34;;;27.67;57.04
13241;BME280;6687;47.790;7.322;2022-08-19T12:56:13;98846.00;;;27.75;57.18
13241;BME280;6687;47.790;7.322;2022-08-19T12:58:41;98846.28;;;27.83;56.83
13241;BME280;6687;47.790;7.322;2022-08-19T13:01:11;98845.72;;;27.54;57.84
13241;BME280;6687;47.790;7.322;2022-08-19T13:03:39;98837.59;;;27.68;57.83
13241;BME280;6687;47.790;7.322;2022-08-19T13:06:06;98842.16;;;27.79;57.87
13241;BME280;6687;47.790;7.322;2022-08-19T13:08:34;98842.50;;;27.62;58.16
13241;BME280;6687;47.790;7.322;2022-08-19T13:11:08;98856.13;;;27.57;58.57
13241;BME280;6687;47.790;7.322;2022-08-19T13:13:39;98855.59;;;27.39;58.74
13241;BME280;6687;47.790;7.322;2022-08-19T13:16:08;98850.34;;;27.12;59.34
13241;BME280;6687;47.790;7.322;2022-08-19T13:18:37;98858.19;;;27.13;59.11
13241;BME280;6687;47.790;7.322;2022-08-19T13:21:04;98852.25;;;27.23;58.75
13241;BME280;6687;47.790;7.322;2022-08-19T13:23:32;98846.88;;;27.24;58.42
13241;BME280;6687;47.790;7.322;2022-08-19T13:26:01;98853.53;;;27.04;59.52
13241;BME280;6687;47.790;7.322;2022-08-19T13:28:30;98844.16;;;27.11;58.74
13241;BME280;6687;47.790;7.322;2022-08-19T13:31:20;98841.63;;;27.23;59.02
13241;BME280;6687;47.790;7.322;2022-08-19T13:34:06;98834.25;;;27.13;58.71
13241;BME280;6687;47.790;7.322;2022-08-19T13:36:34;98832.75;;;26.96;59.50
13241;BME280;6687;47.790;7.322;2022-08-19T13:39:02;98829.59;;;27.17;59.46
13241;BME280;6687;47.790;7.322;2022-08-19T13:41:29;98828.84;;;27.02;59.74
13241;BME280;6687;47.790;7.322;2022-08-19T13:43:57;98829.59;;;27.17;59.65
13241;BME280;6687;47.790;7.322;2022-08-19T13:46:26;98832.03;;;27.07;59.46
13241;BME280;6687;47.790;7.322;2022-08-19T13:48:54;98831.59;;;27.13;58.78
13241;BME280;6687;47.790;7.322;2022-08-19T13:51:22;98828.63;;;27.05;58.96
13241;BME280;6687;47.790;7.322;2022-08-19T13:53:49;98829.88;;;26.87;59.99
13241;BME280;6687;47.790;7.322;2022-08-19T13:56:19;98830.09;;;26.96;59.53
13241;BME280;6687;47.790;7.322;2022-08-19T13:58:46;98836.69;;;26.91;59.70
13241;BME280;6687;47.790;7.322;2022-08-19T14:01:19;98832.63;;;26.85;59.64
13241;BME280;6687;47.790;7.322;2022-08-19T14:03:48;98844.09;;;26.73;60.00
13241;BME280;6687;47.790;7.322;2022-08-19T14:06:15;98847.19;;;26.52;60.88
13241;BME280;6687;47.790;7.322;2022-08-19T14:08:43;98843.72;;;26.37;61.11
13241;BME280;6687;47.790;7.322;2022-08-19T14:11:10;98845.66;;;26.21;61.40
13241;BME280;6687;47.790;7.322;2022-08-19T14:13:37;98851.88;;;26.07;62.39
13241;BME280;6687;47.790;7.322;2022-08-19T14:16:07;98863.19;;;25.96;62.84
13241;BME280;6687;47.790;7.322;2022-08-19T14:18:35;98860.31;;;25.85;63.17
13241;BME280;6687;47.790;7.322;2022-08-19T14:21:04;98867.13;;;25.75;63.20
13241;BME280;6687;47.790;7.322;2022-08-19T14:23:31;98873.69;;;25.69;63.62
13241;BME280;6687;47.790;7.322;2022-08-19T14:26:06;98873.22;;;25.63;64.22
13241;BME280;6687;47.790;7.322;2022-08-19T14:28:33;98874.44;;;25.57;65.23
13241;BME280;6687;47.790;7.322;2022-08-19T14:30:59;98866.56;;;25.55;65.38
13241;BME280;6687;47.790;7.322;2022-08-19T14:33:26;98860.59;;;25.52;65.50
13241;BME280;6687;47.790;7.322;2022-08-19T14:35:53;98861.44;;;25.52;66.20
13241;BME280;6687;47.790;7.322;2022-08-19T14:38:21;98856.13;;;25.52;66.80
13241;BME280;6687;47.790;7.322;2022-08-19T14:40:47;98855.19;;;25.53;66.69
13241;BME280;6687;47.790;7.322;2022-08-19T14:43:15;98861.44;;;25.52;67.04
13241;BME280;6687;47.790;7.322;2022-08-19T14:45:43;98861.44;;;25.52;67.58
13241;BME280;6687;47.790;7.322;2022-08-19T14:48:09;98857.09;;;25.51;67.96
13241;BME280;6687;47.790;7.322;2022-08-19T14:50:36;98856.88;;;25.54;68.17
13241;BME280;6687;47.790;7.322;2022-08-19T14:53:06;98853.09;;;25.58;68.30
13241;BME280;6687;47.790;7.322;2022-08-19T14:55:35;98866.94;;;25.64;67.90
13241;BME280;6687;47.790;7.322;2022-08-19T14:58:01;98852.75;;;25.65;67.57
13241;BME280;6687;47.790;7.322;2022-08-19T15:00:29;98856.91;;;25.69;67.73
13241;BME280;6687;47.790;7.322;2022-08-19T15:02:55;98859.44;;;25.70;67.65
13241;BME280;6687;47.790;7.322;2022-08-19T15:05:22;98858.59;;;25.70;67.47
13241;BME280;6687;47.790;7.322;2022-08-19T15:07:49;98858.59;;;25.70;67.47
13241;BME280;6687;47.790;7.322;2022-08-19T15:10:16;98863.91;;;25.70;67.63
13241;BME280;6687;47.790;7.322;2022-08-19T15:12:44;98863.06;;;25.69;67.53
13241;BME280;6687;47.790;7.322;2022-08-19T15:15:13;98860.69;;;25.65;67.80
13241;BME280;6687;47.790;7.322;2022-08-19T15:17:42;98853.66;;;25.64;68.46
13241;BME280;6687;47.790;7.322;2022-08-19T15:20:10;98853.50;;;25.67;68.55
13241;BME280;6687;47.790;7.322;2022-08-19T15:22:38;98854.34;;;25.67;68.05
13241;BME280;6687;47.790;7.322;2022-08-19T15:25:08;98855.09;;;25.69;68.13
13241;BME280;6687;47.790;7.322;2022-08-19T15:27:35;98855.00;;;25.71;68.04
13241;BME280;6687;47.790;7.322;2022-08-19T15:30:04;98860.31;;;25.71;68.24
13241;BME280;6687;47.790;7.322;2022-08-19T15:32:31;98856.69;;;25.72;68.79
13241;BME280;6687;47.790;7.322;2022-08-19T15:34:58;98858.22;;;25.76;68.76
13241;BME280;6687;47.790;7.322;2022-08-19T15:37:26;98858.03;;;25.79;68.25
13241;BME280;6687;47.790;7.322;2022-08-19T15:39:53;98861.25;;;25.84;68.16
13241;BME280;6687;47.790;7.322;2022-08-19T15:42:20;98857.56;;;25.87;67.72
13241;BME280;6687;47.790;7.322;2022-08-19T15:44:47;98858.63;;;25.98;67.35
13241;BME280;6687;47.790;7.322;2022-08-19T15:47:15;98865.31;;;26.04;66.81
13241;BME280;6687;47.790;7.322;2022-08-19T15:49:44;98859.66;;;25.96;66.31
13241;BME280;6687;47.790;7.322;2022-08-19T15:52:11;98862.22;;;25.97;66.16
13241;BME280;6687;47.790;7.322;2022-08-19T15:54:37;98857.56;;;26.01;65.73
13241;BME280;6687;47.790;7.322;2022-08-19T15:57:05;98859.16;;;25.89;65.49
13241;BME280;6687;47.790;7.322;2022-08-19T15:59:49;98854.63;;;25.77;64.85
13241;BME280;6687;47.790;7.322;2022-08-19T16:02:38;98856.78;;;25.70;64.87
13241;BME280;6687;47.790;7.322;2022-08-19T16:05:25;98856.16;;;25.67;65.96
13241;BME280;6687;47.790;7.322;2022-08-19T16:08:10;98853.47;;;25.52;64.05
13241;BME280;6687;47.790;7.322;2022-08-19T16:10:37;98859.19;;;25.60;65.57
13241;BME280;6687;47.790;7.322;2022-08-19T16:13:05;98861.44;;;25.52;63.73
13241;BME280;6687;47.790;7.322;2022-08-19T16:15:34;98862.84;;;25.44;65.16
13241;BME280;6687;47.790;7.322;2022-08-19T16:18:03;98868.47;;;25.53;65.39
13241;BME280;6687;47.790;7.322;2022-08-19T16:20:30;98859.94;;;25.63;64.37
13241;BME280;6687;47.790;7.322;2022-08-19T16:22:58;98860.31;;;25.85;63.83
13241;BME280;6687;47.790;7.322;2022-08-19T16:25:26;98862.97;;;25.85;63.57
13241;BME280;6687;47.790;7.322;2022-08-19T16:27:54;98871.66;;;25.58;63.38
13241;BME280;6687;47.790;7.322;2022-08-19T16:30:21;98864.66;;;25.86;63.74
13241;BME280;6687;47.790;7.322;2022-08-19T16:32:47;98865.41;;;25.88;62.86
13241;BME280;6687;47.790;7.322;2022-08-19T16:35:15;98856.13;;;25.81;62.36
13241;BME280;6687;47.790;7.322;2022-08-19T16:37:42;98867.50;;;25.83;61.89
13241;BME280;6687;47.790;7.322;2022-08-19T16:40:10;98865.63;;;25.85;62.28
13241;BME280;6687;47.790;7.322;2022-08-19T16:42:36;98863.34;;;25.93;62.24
13241;BME280;6687;47.790;7.322;2022-08-19T16:45:04;98856.53;;;25.75;62.40
13241;BME280;6687;47.790;7.322;2022-08-19T16:47:33;98864.66;;;25.86;62.42
13241;BME280;6687;47.790;7.322;2022-08-19T16:50:00;98869.97;;;25.57;62.41
13241;BME280;6687;47.790;7.322;2022-08-19T16:52:28;98870.94;;;25.71;63.41
13241;BME280;6687;47.790;7.322;2022-08-19T16:54:56;98874.81;;;25.51;62.82
13241;BME280;6687;47.790;7.322;2022-08-19T16:57:22;98875.47;;;25.69;62.99
13241;BME280;6687;47.790;7.322;2022-08-19T16:59:49;98880.41;;;25.60;62.92
13241;BME280;6687;47.790;7.322;2022-08-19T17:02:17;98875.38;;;25.70;62.57
13241;BME280;6687;47.790;7.322;2022-08-19T17:04:44;98880.97;;;25.66;63.49
13241;BME280;6687;47.790;7.322;2022-08-19T17:07:11;98876.13;;;25.58;62.92
13241;BME280;6687;47.790;7.322;2022-08-19T17:09:39;98883.44;;;25.69;62.68
13241;BME280;6687;47.790;7.322;2022-08-19T17:12:06;98871.03;;;25.69;62.72
13241;BME280;6687;47.790;7.322;2022-08-19T17:14:33;98874.72;;;25.81;62.42
13241;BME280;6687;47.790;7.322;2022-08-19T17:17:00;98869.78;;;25.89;61.42
13241;BME280;6687;47.790;7.322;2022-08-19T17:19:27;98871.16;;;25.96;60.77
13241;BME280;6687;47.790;7.322;2022-08-19T17:21:53;98868.47;;;26.11;61.13
13241;BME280;6687;47.790;7.322;2022-08-19T17:24:22;98876.97;;;26.16;61.12
13241;BME280;6687;47.790;7.322;2022-08-19T17:26:50;98875.06;;;26.18;61.00
13241;BME280;6687;47.790;7.322;2022-08-19T17:29:16;98882.63;;;26.24;60.15
13241;BME280;6687;47.790;7.322;2022-08-19T17:31:43;98878.44;;;26.49;59.45
13241;BME280;6687;47.790;7.322;2022-08-19T17:34:10;98876.59;;;26.64;59.36
13241;BME280;6687;47.790;7.322;2022-08-19T17:36:36;98878.63;;;26.60;58.44
13241;BME280;6687;47.790;7.322;2022-08-19T17:39:03;98875.09;;;26.59;57.96
13241;BME280;6687;47.790;7.322;2022-08-19T17:41:31;98874.31;;;26.85;58.43
13241;BME280;6687;47.790;7.322;2022-08-19T17:44:02;98870.31;;;26.92;58.00
13241;BME280;6687;47.790;7.322;2022-08-19T17:46:29;98870.84;;;26.97;57.25
13241;BME280;6687;47.790;7.322;2022-08-19T17:48:56;98876.81;;;27.01;57.81
13241;BME280;6687;47.790;7.322;2022-08-19T17:51:35;98873.91;;;26.91;57.64
13241;BME280;6687;47.790;7.322;2022-08-19T17:54:05;98878.81;;;26.97;57.24
13241;BME280;6687;47.790;7.322;2022-08-19T17:56:32;98882.88;;;27.03;57.44
13241;BME280;6687;47.790;7.322;2022-08-19T17:59:00;98878.22;;;27.06;57.36
13241;BME280;6687;47.790;7.322;2022-08-19T18:01:27;98883.31;;;27.09;57.41
13241;BME280;6687;47.790;7.322;2022-08-19T18:03:55;98884.97;;;26.85;56.13
13241;BME280;6687;47.790;7.322;2022-08-19T18:06:21;98887.97;;;27.06;56.94
13241;BME280;6687;47.790;7.322;2022-08-19T18:08:48;98888.84;;;27.06;57.36
13241;BME280;6687;47.790;7.322;2022-08-19T18:11:15;98890.94;;;27.01;57.41
13241;BME280;6687;47.790;7.322;2022-08-19T18:13:42;98897.34;;;26.98;57.53
13241;BME280;6687;47.790;7.322;2022-08-19T18:16:10;98892.38;;;26.79;57.77
13241;BME280;6687;47.790;7.322;2022-08-19T18:18:38;98895.59;;;26.85;57.66
13241;BME280;6687;47.790;7.322;2022-08-19T18:21:06;98900.00;;;26.71;58.12
13241;BME280;6687;47.790;7.322;2022-08-19T18:23:33;98903.47;;;26.59;57.94
13241;BME280;6687;47.790;7.322;2022-08-19T18:26:00;98912.00;;;26.50;58.15
13241;BME280;6687;47.790;7.322;2022-08-19T18:28:27;98917.25;;;26.37;58.88
13241;BME280;6687;47.790;7.322;2022-08-19T18:30:54;98918.16;;;26.23;59.08
13241;BME280;6687;47.790;7.322;2022-08-19T18:33:22;98914.53;;;26.10;59.40
13241;BME280;6687;47.790;7.322;2022-08-19T18:35:50;98918.34;;;25.91;59.39
13241;BME280;6687;47.790;7.322;2022-08-19T18:38:19;98926.28;;;25.77;59.86
13241;BME280;6687;47.790;7.322;2022-08-19T18:41:04;98927.31;;;25.60;60.16
13241;BME280;6687;47.790;7.322;2022-08-19T18:43:48;98930.63;;;25.49;60.34
13241;BME280;6687;47.790;7.322;2022-08-19T18:46:33;98937.59;;;25.36;60.72
13241;BME280;6687;47.790;7.322;2022-08-19T18:49:22;98939.25;;;25.23;61.23
13241;BME280;6687;47.790;7.322;2022-08-19T18:51:49;98945.31;;;25.09;61.52
13241;BME280;6687;47.790;7.322;2022-08-19T18:54:16;98954.00;;;24.96;62.34
13241;BME280;6687;47.790;7.322;2022-08-19T18:56:43;98947.59;;;24.85;62.74
13241;BME280;6687;47.790;7.322;2022-08-19T18:59:12;98946.34;;;24.76;62.78
13241;BME280;6687;47.790;7.322;2022-08-19T19:01:42;98948.66;;;24.66;63.11
13241;BME280;6687;47.790;7.322;2022-08-19T19:04:12;98949.25;;;24.55;63.31
13241;BME280;6687;47.790;7.322;2022-08-19T19:06:41;98950.75;;;24.44;63.27
13241;BME280;6687;47.790;7.322;2022-08-19T19:09:10;98952.22;;;24.33;63.63
13241;BME280;6687;47.790;7.322;2022-08-19T19:11:40;98955.50;;;24.21;63.83
13241;BME280;6687;47.790;7.322;2022-08-19T19:14:11;98963.19;;;24.10;64.31
13241;BME280;6687;47.790;7.322;2022-08-19T19:16:40;98969.16;;;23.97;64.33
13241;BME280;6687;47.790;7.322;2022-08-19T19:19:08;98968.16;;;23.82;64.30
13241;BME280;6687;47.790;7.322;2022-08-19T19:21:38;98968.69;;;23.72;64.69
13241;BME280;6687;47.790;7.322;2022-08-19T19:24:13;98974.13;;;23.51;65.26
13241;BME280;6687;47.790;7.322;2022-08-19T19:26:41;98972.28;;;23.36;66.79
13241;BME280;6687;47.790;7.322;2022-08-19T19:29:10;98980.03;;;23.21;67.93
13241;BME280;6687;47.790;7.322;2022-08-19T19:31:37;98975.66;;;23.03;69.39